sensor_id;sensor_type;location;lat;lon;timestamp;P1;durP1;ratioP1;P2;durP2;ratioP2
9461;SDS011;4769;42.660;23.262;2023-02-28T00:01:20;21.30;;;16.83;;
9461;SDS011;4769;42.660;23.262;2023-02-28T00:04:01;22.27;;;17.43;;
9461;SDS011;4769;42.660;23.262;2023-02-28T00:06:28;21.10;;;17.10;;
9461;SDS011;4769;42.660;23.262;2023-02-28T00:08:56;23.50;;;17.70;;
9461;SDS011;4769;42.660;23.262;2023-02-28T00:11:23;23.93;;;16.87;;
9461;SDS011;4769;42.660;23.262;2023-02-28T00:13:50;23.07;;;18.30;;
9461;SDS011;4769;42.660;23.262;2023-02-28T00:16:17;22.83;;;17.87;;
9461;SDS011;4769;42.660;23.262;2023-02-28T00:18:47;23.03;;;16.60;;
9461;SDS011;4769;42.660;23.262;2023-02-28T00:21:14;20.87;;;15.23;;
9461;SDS011;4769;42.660;23.262;2023-02-28T00:23:41;15.07;;;13.07;;
9461;SDS011;4769;42.660;23.262;2023-02-28T00:26:08;16.47;;;11.77;;
9461;SDS011;4769;42.660;23.262;2023-02-28T00:28:36;14.17;;;10.17;;
9461;SDS011;4769;42.660;23.262;2023-02-28T00:31:03;11.23;;;8.30;;
9461;SDS011;4769;42.660;23.262;2023-02-28T00:33:35;10.67;;;8.30;;
9461;SDS011;4769;42.660;23.262;2023-02-28T00:36:02;9.10;;;7.47;;
9461;SDS011;4769;42.660;23.262;2023-02-28T00:38:32;9.00;;;6.77;;
9461;SDS011;4769;42.660;23.262;2023-02-28T00:40:59;9.83;;;7.50;;
9461;SDS011;4769;42.660;23.262;2023-02-28T00:43:31;10.30;;;8.00;;
9461;SDS011;4769;42.660;23.262;2023-02-28T00:45:58;15.03;;;11.53;;
9461;SDS011;4769;42.660;23.262;2023-02-28T00:48:25;14.03;;;11.20;;
9461;SDS011;4769;42.660;23.262;2023-02-28T00:53:37;16.37;;;11.73;;
9461;SDS011;4769;42.660;23.262;2023-02-28T00:56:04;17.57;;;13.37;;
9461;SDS011;4769;42.660;23.262;2023-02-28T00:58:31;24.33;;;17.27;;
9461;SDS011;4769;42.660;23.262;2023-02-28T01:00:58;21.30;;;17.30;;
9461;SDS011;4769;42.660;23.262;2023-02-28T01:03:26;19.83;;;17.13;;
9461;SDS011;4769;42.660;23.262;2023-02-28T01:05:53;21.00;;;17.53;;
9461;SDS011;4769;42.660;23.262;2023-02-28T01:08:22;21.80;;;16.47;;
9461;SDS011;4769;42.660;23.262;2023-02-28T01:10:49;24.93;;;17.87;;
9461;SDS011;4769;42.660;23.262;2023-02-28T01:13:16;21.30;;;17.00;;
9461;SDS011;4769;42.660;23.262;2023-02-28T01:15:46;22.23;;;18.10;;
9461;SDS011;4769;42.660;23.262;2023-02-28T01:18:18;26.90;;;19.47;;
9461;SDS011;4769;42.660;23.262;2023-02-28T01:20:47;26.10;;;20.17;;
9461;SDS011;4769;42.660;23.262;2023-02-28T01:23:16;36.70;;;23.03;;
9461;SDS011;4769;42.660;23.262;2023-02-28T01:25:46;45.00;;;23.70;;
9461;SDS011;4769;42.660;23.262;2023-02-28T01:28:16;233.40;;;29.57;;
9461;SDS011;4769;42.660;23.262;2023-02-28T01:30:46;35.07;;;24.23;;
9461;SDS011;4769;42.660;23.262;2023-02-28T01:33:15;32.30;;;24.50;;
9461;SDS011;4769;42.660;23.262;2023-02-28T01:35:58;63.43;;;25.67;;
9461;SDS011;4769;42.660;23.262;2023-02-28T01:38:26;38.30;;;25.07;;
9461;SDS011;4769;42.660;23.262;2023-02-28T01:40:54;37.40;;;26.77;;
9461;SDS011;4769;42.660;23.262;2023-02-28T01:43:23;77.43;;;28.37;;
9461;SDS011;4769;42.660;23.262;2023-02-28T01:45:52;102.63;;;28.90;;
9461;SDS011;4769;42.660;23.262;2023-02-28T01:48:21;42.90;;;26.70;;
9461;SDS011;4769;42.660;23.262;2023-02-28T01:50:52;48.20;;;27.57;;
9461;SDS011;4769;42.660;23.262;2023-02-28T01:53:26;47.80;;;27.67;;
9461;SDS011;4769;42.660;23.262;2023-02-28T01:55:59;44.57;;;28.07;;
9461;SDS011;4769;42.660;23.262;2023-02-28T01:58:26;43.90;;;28.07;;
9461;SDS011;4769;42.660;23.262;2023-02-28T02:00:53;41.87;;;27.50;;
9461;SDS011;4769;42.660;23.262;2023-02-28T02:03:20;40.80;;;27.93;;
9461;SDS011;4769;42.660;23.262;2023-02-28T02:05:47;44.47;;;28.03;;
9461;SDS011;4769;42.660;23.262;2023-02-28T02:08:15;42.93;;;28.13;;
9461;SDS011;4769;42.660;23.262;2023-02-28T02:10:45;43.63;;;27.50;;
9461;SDS011;4769;42.660;23.262;2023-02-28T02:13:23;41.53;;;28.33;;
9461;SDS011;4769;42.660;23.262;2023-02-28T02:16:00;43.13;;;28.23;;
9461;SDS011;4769;42.660;23.262;2023-02-28T02:18:43;39.87;;;27.70;;
9461;SDS011;4769;42.660;23.262;2023-02-28T02:21:38;41.03;;;28.30;;
9461;SDS011;4769;42.660;23.262;2023-02-28T02:27:33;54.57;;;26.10;;
9461;SDS011;4769;42.660;23.262;2023-02-28T02:30:21;40.57;;;26.97;;
9461;SDS011;4769;42.660;23.262;2023-02-28T02:33:16;40.93;;;27.17;;
9461;SDS011;4769;42.660;23.262;2023-02-28T02:36:04;40.53;;;26.77;;
9461;SDS011;4769;42.660;23.262;2023-02-28T02:38:34;49.27;;;28.23;;
9461;SDS011;4769;42.660;23.262;2023-02-28T02:41:08;40.20;;;27.67;;
9461;SDS011;4769;42.660;23.262;2023-02-28T02:43:40;73.37;;;28.17;;
9461;SDS011;4769;42.660;23.262;2023-02-28T02:46:14;37.87;;;24.67;;
9461;SDS011;4769;42.660;23.262;2023-02-28T02:48:45;38.37;;;25.13;;
9461;SDS011;4769;42.660;23.262;2023-02-28T02:51:15;105.97;;;25.60;;
9461;SDS011;4769;42.660;23.262;2023-02-28T02:53:46;38.60;;;23.70;;
9461;SDS011;4769;42.660;23.262;2023-02-28T02:56:16;34.53;;;24.33;;
9461;SDS011;4769;42.660;23.262;2023-02-28T02:58:45;61.87;;;22.77;;
9461;SDS011;4769;42.660;23.262;2023-02-28T03:01:16;35.77;;;23.73;;
9461;SDS011;4769;42.660;23.262;2023-02-28T03:03:54;35.10;;;22.60;;
9461;SDS011;4769;42.660;23.262;2023-02-28T03:06:24;49.53;;;22.53;;
9461;SDS011;4769;42.660;23.262;2023-02-28T03:08:51;31.07;;;21.77;;
9461;SDS011;4769;42.660;23.262;2023-02-28T03:11:17;38.53;;;22.47;;
9461;SDS011;4769;42.660;23.262;2023-02-28T03:16:57;35.53;;;22.37;;
9461;SDS011;4769;42.660;23.262;2023-02-28T03:19:32;32.83;;;21.50;;
9461;SDS011;4769;42.660;23.262;2023-02-28T03:22:12;31.23;;;21.70;;
9461;SDS011;4769;42.660;23.262;2023-02-28T03:24:46;33.70;;;22.00;;
9461;SDS011;4769;42.660;23.262;2023-02-28T03:27:17;34.60;;;22.90;;
9461;SDS011;4769;42.660;23.262;2023-02-28T03:29:50;36.23;;;23.03;;
9461;SDS011;4769;42.660;23.262;2023-02-28T03:32:24;41.00;;;26.30;;
9461;SDS011;4769;42.660;23.262;2023-02-28T03:34:56;44.50;;;27.57;;
9461;SDS011;4769;42.660;23.262;2023-02-28T03:37:31;43.17;;;27.53;;
9461;SDS011;4769;42.660;23.262;2023-02-28T03:40:03;48.33;;;27.47;;
9461;SDS011;4769;42.660;23.262;2023-02-28T03:42:34;37.30;;;22.63;;
9461;SDS011;4769;42.660;23.262;2023-02-28T03:45:04;37.93;;;24.60;;
9461;SDS011;4769;42.660;23.262;2023-02-28T03:47:37;37.80;;;25.67;;
9461;SDS011;4769;42.660;23.262;2023-02-28T03:50:10;37.93;;;25.47;;
9461;SDS011;4769;42.660;23.262;2023-02-28T03:52:44;41.73;;;26.70;;
9461;SDS011;4769;42.660;23.262;2023-02-28T03:55:14;40.77;;;26.87;;
9461;SDS011;4769;42.660;23.262;2023-02-28T03:57:44;40.20;;;25.67;;
9461;SDS011;4769;42.660;23.262;2023-02-28T04:00:17;37.60;;;25.07;;
9461;SDS011;4769;42.660;23.262;2023-02-28T04:02:47;40.67;;;24.73;;
9461;SDS011;4769;42.660;23.262;2023-02-28T04:05:17;35.00;;;24.30;;
9461;SDS011;4769;42.660;23.262;2023-02-28T04:07:46;36.00;;;23.00;;
9461;SDS011;4769;42.660;23.262;2023-02-28T04:10:13;36.03;;;25.10;;
9461;SDS011;4769;42.660;23.262;2023-02-28T04:12:41;33.20;;;23.63;;
9461;SDS011;4769;42.660;23.262;2023-02-28T04:15:08;32.37;;;23.60;;
9461;SDS011;4769;42.660;23.262;2023-02-28T04:17:36;34.70;;;23.57;;
9461;SDS011;4769;42.660;23.262;2023-02-28T04:20:03;34.93;;;23.47;;
9461;SDS011;4769;42.660;23.262;2023-02-28T04:22:34;36.70;;;24.23;;
9461;SDS011;4769;42.660;23.262;2023-02-28T04:25:03;38.37;;;25.20;;
9461;SDS011;4769;42.660;23.262;2023-02-28T04:27:31;39.07;;;25.83;;
9461;SDS011;4769;42.660;23.262;2023-02-28T04:29:58;39.60;;;26.67;;
9461;SDS011;4769;42.660;23.262;2023-02-28T04:32:25;36.73;;;25.57;;
9461;SDS011;4769;42.660;23.262;2023-02-28T04:34:52;41.83;;;27.80;;
9461;SDS011;4769;42.660;23.262;2023-02-28T04:41:29;32.83;;;25.47;;
9461;SDS011;4769;42.660;23.262;2023-02-28T04:45:51;34.47;;;23.50;;
9461;SDS011;4769;42.660;23.262;2023-02-28T04:48:21;33.87;;;23.73;;
9461;SDS011;4769;42.660;23.262;2023-02-28T04:50:50;37.83;;;24.87;;
9461;SDS011;4769;42.660;23.262;2023-02-28T04:55:02;37.20;;;25.80;;
9461;SDS011;4769;42.660;23.262;2023-02-28T04:57:29;35.13;;;24.77;;
9461;SDS011;4769;42.660;23.262;2023-02-28T04:59:54;33.10;;;24.53;;
9461;SDS011;4769;42.660;23.262;2023-02-28T05:02:20;34.63;;;24.80;;
9461;SDS011;4769;42.660;23.262;2023-02-28T05:04:46;33.90;;;24.30;;
9461;SDS011;4769;42.660;23.262;2023-02-28T05:07:11;31.17;;;22.27;;
9461;SDS011;4769;42.660;23.262;2023-02-28T05:09:37;31.60;;;21.77;;
9461;SDS011;4769;42.660;23.262;2023-02-28T05:12:05;34.40;;;23.47;;
9461;SDS011;4769;42.660;23.262;2023-02-28T05:14:32;30.70;;;22.93;;
9461;SDS011;4769;42.660;23.262;2023-02-28T05:16:58;38.67;;;25.73;;
9461;SDS011;4769;42.660;23.262;2023-02-28T05:19:23;35.07;;;25.67;;
9461;SDS011;4769;42.660;23.262;2023-02-28T05:21:50;37.63;;;23.10;;
9461;SDS011;4769;42.660;23.262;2023-02-28T05:24:17;31.43;;;22.60;;
9461;SDS011;4769;42.660;23.262;2023-02-28T05:26:42;30.87;;;22.33;;
9461;SDS011;4769;42.660;23.262;2023-02-28T05:29:11;34.73;;;22.03;;
9461;SDS011;4769;42.660;23.262;2023-02-28T05:31:36;31.70;;;20.17;;
9461;SDS011;4769;42.660;23.262;2023-02-28T05:34:02;27.23;;;20.03;;
9461;SDS011;4769;42.660;23.262;2023-02-28T05:36:28;29.83;;;19.70;;
9461;SDS011;4769;42.660;23.262;2023-02-28T05:38:54;29.57;;;19.30;;
9461;SDS011;4769;42.660;23.262;2023-02-28T05:41:19;29.93;;;20.33;;
9461;SDS011;4769;42.660;23.262;2023-02-28T05:43:45;28.27;;;19.83;;
9461;SDS011;4769;42.660;23.262;2023-02-28T05:46:14;28.67;;;19.67;;
9461;SDS011;4769;42.660;23.262;2023-02-28T05:48:40;28.63;;;20.50;;
9461;SDS011;4769;42.660;23.262;2023-02-28T05:51:07;29.47;;;20.43;;
9461;SDS011;4769;42.660;23.262;2023-02-28T05:53:34;31.17;;;20.53;;
9461;SDS011;4769;42.660;23.262;2023-02-28T05:56:00;28.00;;;19.63;;
9461;SDS011;4769;42.660;23.262;2023-02-28T05:58:26;28.23;;;17.87;;
9461;SDS011;4769;42.660;23.262;2023-02-28T06:00:52;26.37;;;18.07;;
9461;SDS011;4769;42.660;23.262;2023-02-28T06:03:20;29.50;;;18.20;;
9461;SDS011;4769;42.660;23.262;2023-02-28T06:05:46;29.33;;;19.73;;
9461;SDS011;4769;42.660;23.262;2023-02-28T06:08:12;29.40;;;19.27;;
9461;SDS011;4769;42.660;23.262;2023-02-28T06:10:37;33.20;;;21.90;;
9461;SDS011;4769;42.660;23.262;2023-02-28T06:13:03;36.57;;;23.03;;
9461;SDS011;4769;42.660;23.262;2023-02-28T06:15:29;30.63;;;21.73;;
9461;SDS011;4769;42.660;23.262;2023-02-28T06:17:56;28.03;;;21.70;;
9461;SDS011;4769;42.660;23.262;2023-02-28T06:20:27;30.27;;;21.47;;
9461;SDS011;4769;42.660;23.262;2023-02-28T06:22:53;27.23;;;19.97;;
9461;SDS011;4769;42.660;23.262;2023-02-28T06:25:19;31.03;;;20.33;;
9461;SDS011;4769;42.660;23.262;2023-02-28T06:27:44;31.83;;;20.37;;
9461;SDS011;4769;42.660;23.262;2023-02-28T06:30:14;28.97;;;20.40;;
9461;SDS011;4769;42.660;23.262;2023-02-28T06:32:40;35.03;;;21.63;;
9461;SDS011;4769;42.660;23.262;2023-02-28T06:35:06;28.77;;;21.33;;
9461;SDS011;4769;42.660;23.262;2023-02-28T06:37:35;29.70;;;21.03;;
9461;SDS011;4769;42.660;23.262;2023-02-28T06:40:01;35.03;;;22.00;;
9461;SDS011;4769;42.660;23.262;2023-02-28T06:42:26;31.10;;;21.90;;
9461;SDS011;4769;42.660;23.262;2023-02-28T06:44:52;31.77;;;21.40;;
9461;SDS011;4769;42.660;23.262;2023-02-28T06:47:18;29.40;;;21.77;;
9461;SDS011;4769;42.660;23.262;2023-02-28T06:49:44;31.10;;;21.60;;
9461;SDS011;4769;42.660;23.262;2023-02-28T06:52:09;30.43;;;22.47;;
9461;SDS011;4769;42.660;23.262;2023-02-28T06:54:38;50.30;;;36.00;;
9461;SDS011;4769;42.660;23.262;2023-02-28T06:57:04;41.30;;;30.50;;
9461;SDS011;4769;42.660;23.262;2023-02-28T06:59:30;35.60;;;25.03;;
9461;SDS011;4769;42.660;23.262;2023-02-28T07:01:56;36.60;;;25.80;;
9461;SDS011;4769;42.660;23.262;2023-02-28T07:04:22;36.30;;;27.60;;
9461;SDS011;4769;42.660;23.262;2023-02-28T07:06:48;40.20;;;28.73;;
9461;SDS011;4769;42.660;23.262;2023-02-28T07:09:13;38.50;;;26.90;;
9461;SDS011;4769;42.660;23.262;2023-02-28T07:11:54;39.30;;;27.33;;
9461;SDS011;4769;42.660;23.262;2023-02-28T07:14:20;38.80;;;26.67;;
9461;SDS011;4769;42.660;23.262;2023-02-28T07:16:47;37.97;;;27.47;;
9461;SDS011;4769;42.660;23.262;2023-02-28T07:19:13;43.90;;;27.87;;
9461;SDS011;4769;42.660;23.262;2023-02-28T07:21:39;44.87;;;29.80;;
9461;SDS011;4769;42.660;23.262;2023-02-28T07:24:05;50.97;;;31.80;;
9461;SDS011;4769;42.660;23.262;2023-02-28T07:26:31;49.13;;;31.67;;
9461;SDS011;4769;42.660;23.262;2023-02-28T07:28:59;50.13;;;32.20;;
9461;SDS011;4769;42.660;23.262;2023-02-28T07:31:25;53.50;;;34.10;;
9461;SDS011;4769;42.660;23.262;2023-02-28T07:33:50;54.07;;;35.53;;
9461;SDS011;4769;42.660;23.262;2023-02-28T07:36:16;60.40;;;35.33;;
9461;SDS011;4769;42.660;23.262;2023-02-28T07:38:43;61.07;;;36.50;;
9461;SDS011;4769;42.660;23.262;2023-02-28T07:41:15;58.20;;;36.47;;
9461;SDS011;4769;42.660;23.262;2023-02-28T07:43:44;65.60;;;37.47;;
9461;SDS011;4769;42.660;23.262;2023-02-28T07:46:23;69.07;;;39.30;;
9461;SDS011;4769;42.660;23.262;2023-02-28T07:48:49;70.90;;;37.63;;
9461;SDS011;4769;42.660;23.262;2023-02-28T07:51:14;58.13;;;36.80;;
9461;SDS011;4769;42.660;23.262;2023-02-28T07:53:42;67.37;;;37.80;;
9461;SDS011;4769;42.660;23.262;2023-02-28T07:56:08;63.33;;;36.70;;
9461;SDS011;4769;42.660;23.262;2023-02-28T07:58:33;59.10;;;37.93;;
9461;SDS011;4769;42.660;23.262;2023-02-28T08:01:04;65.57;;;37.47;;
9461;SDS011;4769;42.660;23.262;2023-02-28T08:03:33;65.47;;;38.20;;
9461;SDS011;4769;42.660;23.262;2023-02-28T08:05:59;63.97;;;37.27;;
9461;SDS011;4769;42.660;23.262;2023-02-28T08:08:24;66.57;;;38.90;;
9461;SDS011;4769;42.660;23.262;2023-02-28T08:10:50;60.67;;;37.53;;
9461;SDS011;4769;42.660;23.262;2023-02-28T08:13:16;62.83;;;36.90;;
9461;SDS011;4769;42.660;23.262;2023-02-28T08:15:41;61.27;;;37.70;;
9461;SDS011;4769;42.660;23.262;2023-02-28T08:18:07;58.57;;;35.17;;
9461;SDS011;4769;42.660;23.262;2023-02-28T08:20:35;82.80;;;43.87;;
9461;SDS011;4769;42.660;23.262;2023-02-28T08:23:01;76.50;;;42.00;;
9461;SDS011;4769;42.660;23.262;2023-02-28T08:25:26;73.07;;;39.83;;
9461;SDS011;4769;42.660;23.262;2023-02-28T08:27:52;73.67;;;38.70;;
9461;SDS011;4769;42.660;23.262;2023-02-28T08:30:18;65.37;;;39.90;;
9461;SDS011;4769;42.660;23.262;2023-02-28T08:32:44;72.57;;;39.00;;
9461;SDS011;4769;42.660;23.262;2023-02-28T08:35:09;68.87;;;40.03;;
9461;SDS011;4769;42.660;23.262;2023-02-28T08:37:38;67.73;;;39.83;;
9461;SDS011;4769;42.660;23.262;2023-02-28T08:40:04;75.37;;;37.90;;
9461;SDS011;4769;42.660;23.262;2023-02-28T08:42:31;72.63;;;39.07;;
9461;SDS011;4769;42.660;23.262;2023-02-28T08:44:57;70.13;;;40.03;;
9461;SDS011;4769;42.660;23.262;2023-02-28T08:47:23;78.87;;;39.23;;
9461;SDS011;4769;42.660;23.262;2023-02-28T08:49:49;65.13;;;38.17;;
9461;SDS011;4769;42.660;23.262;2023-02-28T08:52:14;75.03;;;39.80;;
9461;SDS011;4769;42.660;23.262;2023-02-28T08:54:43;64.57;;;37.17;;
9461;SDS011;4769;42.660;23.262;2023-02-28T08:57:08;71.20;;;39.37;;
9461;SDS011;4769;42.660;23.262;2023-02-28T08:59:34;67.40;;;38.03;;
9461;SDS011;4769;42.660;23.262;2023-02-28T09:02:00;64.23;;;38.20;;
9461;SDS011;4769;42.660;23.262;2023-02-28T09:04:25;70.40;;;39.30;;
9461;SDS011;4769;42.660;23.262;2023-02-28T09:06:51;58.43;;;37.43;;
9461;SDS011;4769;42.660;23.262;2023-02-28T09:09:17;66.07;;;39.57;;
9461;SDS011;4769;42.660;23.262;2023-02-28T09:11:45;62.17;;;38.03;;
9461;SDS011;4769;42.660;23.262;2023-02-28T09:14:10;62.27;;;36.50;;
9461;SDS011;4769;42.660;23.262;2023-02-28T09:16:36;62.27;;;37.43;;
9461;SDS011;4769;42.660;23.262;2023-02-28T09:19:02;64.37;;;37.80;;
9461;SDS011;4769;42.660;23.262;2023-02-28T09:21:28;61.03;;;39.37;;
9461;SDS011;4769;42.660;23.262;2023-02-28T09:23:53;74.27;;;42.30;;
9461;SDS011;4769;42.660;23.262;2023-02-28T09:26:21;75.10;;;43.53;;
9461;SDS011;4769;42.660;23.262;2023-02-28T09:28:51;64.60;;;39.80;;
9461;SDS011;4769;42.660;23.262;2023-02-28T09:31:18;71.10;;;39.30;;
9461;SDS011;4769;42.660;23.262;2023-02-28T09:33:46;62.73;;;39.40;;
9461;SDS011;4769;42.660;23.262;2023-02-28T09:36:12;62.37;;;37.30;;
9461;SDS011;4769;42.660;23.262;2023-02-28T09:38:37;66.00;;;37.07;;
9461;SDS011;4769;42.660;23.262;2023-02-28T09:41:04;59.90;;;38.73;;
9461;SDS011;4769;42.660;23.262;2023-02-28T09:43:38;58.40;;;37.70;;
9461;SDS011;4769;42.660;23.262;2023-02-28T09:46:14;61.33;;;37.92;;
9461;SDS011;4769;42.660;23.262;2023-02-28T09:48:50;55.90;;;37.77;;
9461;SDS011;4769;42.660;23.262;2023-02-28T09:51:24;63.92;;;36.17;;
9461;SDS011;4769;42.660;23.262;2023-02-28T09:53:56;60.88;;;37.60;;
9461;SDS011;4769;42.660;23.262;2023-02-28T09:56:22;60.03;;;36.92;;
9461;SDS011;4769;42.660;23.262;2023-02-28T09:58:53;62.38;;;39.08;;
9461;SDS011;4769;42.660;23.262;2023-02-28T10:01:28;63.25;;;37.47;;
9461;SDS011;4769;42.660;23.262;2023-02-28T10:04:00;65.55;;;37.92;;
9461;SDS011;4769;42.660;23.262;2023-02-28T10:06:34;58.85;;;37.72;;
9461;SDS011;4769;42.660;23.262;2023-02-28T10:09:07;51.97;;;35.50;;
9461;SDS011;4769;42.660;23.262;2023-02-28T10:11:37;51.55;;;33.88;;
9461;SDS011;4769;42.660;23.262;2023-02-28T10:14:05;53.33;;;35.40;;
9461;SDS011;4769;42.660;23.262;2023-02-28T10:16:41;57.70;;;35.63;;
9461;SDS011;4769;42.660;23.262;2023-02-28T10:19:11;59.80;;;35.43;;
9461;SDS011;4769;42.660;23.262;2023-02-28T10:21:42;53.75;;;33.22;;
9461;SDS011;4769;42.660;23.262;2023-02-28T10:24:15;55.40;;;35.37;;
9461;SDS011;4769;42.660;23.262;2023-02-28T10:26:48;53.47;;;34.20;;
9461;SDS011;4769;42.660;23.262;2023-02-28T10:29:17;49.65;;;33.70;;
9461;SDS011;4769;42.660;23.262;2023-02-28T10:31:45;53.00;;;34.65;;
9461;SDS011;4769;42.660;23.262;2023-02-28T10:34:11;61.58;;;36.55;;
9461;SDS011;4769;42.660;23.262;2023-02-28T10:36:38;53.50;;;34.67;;
9461;SDS011;4769;42.660;23.262;2023-02-28T10:41:58;54.95;;;33.35;;
9461;SDS011;4769;42.660;23.262;2023-02-28T10:44:24;51.05;;;33.53;;
9461;SDS011;4769;42.660;23.262;2023-02-28T10:46:52;46.58;;;31.30;;
9461;SDS011;4769;42.660;23.262;2023-02-28T10:49:20;42.08;;;30.25;;
9461;SDS011;4769;42.660;23.262;2023-02-28T10:51:48;40.45;;;25.48;;
9461;SDS011;4769;42.660;23.262;2023-02-28T10:54:19;37.58;;;26.20;;
9461;SDS011;4769;42.660;23.262;2023-02-28T10:59:32;26.75;;;16.20;;
9461;SDS011;4769;42.660;23.262;2023-02-28T11:02:00;26.08;;;17.08;;
9461;SDS011;4769;42.660;23.262;2023-02-28T11:04:33;31.15;;;17.85;;
9461;SDS011;4769;42.660;23.262;2023-02-28T11:07:01;32.97;;;15.50;;
9461;SDS011;4769;42.660;23.262;2023-02-28T11:09:30;31.55;;;14.95;;
9461;SDS011;4769;42.660;23.262;2023-02-28T11:11:58;29.13;;;15.75;;
9461;SDS011;4769;42.660;23.262;2023-02-28T11:14:25;26.40;;;14.60;;
9461;SDS011;4769;42.660;23.262;2023-02-28T11:16:53;21.60;;;13.27;;
9461;SDS011;4769;42.660;23.262;2023-02-28T11:19:26;24.85;;;14.65;;
9461;SDS011;4769;42.660;23.262;2023-02-28T11:21:57;23.08;;;13.70;;
9461;SDS011;4769;42.660;23.262;2023-02-28T11:24:26;26.95;;;14.73;;
9461;SDS011;4769;42.660;23.262;2023-02-28T11:26:53;28.63;;;15.15;;
9461;SDS011;4769;42.660;23.262;2023-02-28T11:29:21;25.35;;;14.52;;
9461;SDS011;4769;42.660;23.262;2023-02-28T11:34:41;29.98;;;13.90;;
9461;SDS011;4769;42.660;23.262;2023-02-28T11:37:09;30.35;;;15.85;;
9461;SDS011;4769;42.660;23.262;2023-02-28T11:39:37;28.38;;;14.68;;
9461;SDS011;4769;42.660;23.262;2023-02-28T11:45:03;28.80;;;16.40;;
9461;SDS011;4769;42.660;23.262;2023-02-28T11:47:45;32.42;;;15.98;;
9461;SDS011;4769;42.660;23.262;2023-02-28T11:50:26;38.55;;;17.52;;
9461;SDS011;4769;42.660;23.262;2023-02-28T11:53:05;30.48;;;15.25;;
9461;SDS011;4769;42.660;23.262;2023-02-28T11:55:42;26.52;;;15.63;;
9461;SDS011;4769;42.660;23.262;2023-02-28T11:58:25;27.48;;;15.70;;
9461;SDS011;4769;42.660;23.262;2023-02-28T12:01:09;24.75;;;16.05;;
9461;SDS011;4769;42.660;23.262;2023-02-28T12:03:45;23.45;;;15.80;;
9461;SDS011;4769;42.660;23.262;2023-02-28T12:06:27;27.65;;;15.88;;
9461;SDS011;4769;42.660;23.262;2023-02-28T12:09:02;25.48;;;15.52;;
9461;SDS011;4769;42.660;23.262;2023-02-28T12:11:40;24.95;;;14.95;;
9461;SDS011;4769;42.660;23.262;2023-02-28T12:14:25;27.38;;;16.40;;
9461;SDS011;4769;42.660;23.262;2023-02-28T12:17:12;28.90;;;17.10;;
9461;SDS011;4769;42.660;23.262;2023-02-28T12:19:48;30.13;;;16.23;;
9461;SDS011;4769;42.660;23.262;2023-02-28T12:22:31;29.02;;;16.80;;
9461;SDS011;4769;42.660;23.262;2023-02-28T12:25:13;28.33;;;16.98;;
9461;SDS011;4769;42.660;23.262;2023-02-28T12:28:03;29.48;;;14.13;;
9461;SDS011;4769;42.660;23.262;2023-02-28T12:30:30;28.33;;;14.48;;
9461;SDS011;4769;42.660;23.262;2023-02-28T12:33:01;24.10;;;15.20;;
9461;SDS011;4769;42.660;23.262;2023-02-28T12:35:32;27.73;;;13.93;;
9461;SDS011;4769;42.660;23.262;2023-02-28T12:38:08;21.42;;;12.55;;
9461;SDS011;4769;42.660;23.262;2023-02-28T12:40:42;24.42;;;13.38;;
9461;SDS011;4769;42.660;23.262;2023-02-28T12:43:10;31.85;;;14.45;;
9461;SDS011;4769;42.660;23.262;2023-02-28T12:45:40;28.95;;;15.45;;
9461;SDS011;4769;42.660;23.262;2023-02-28T12:48:10;27.67;;;16.40;;
9461;SDS011;4769;42.660;23.262;2023-02-28T12:50:40;24.80;;;15.95;;
9461;SDS011;4769;42.660;23.262;2023-02-28T12:53:10;24.08;;;14.95;;
9461;SDS011;4769;42.660;23.262;2023-02-28T12:55:45;24.95;;;15.35;;
9461;SDS011;4769;42.660;23.262;2023-02-28T12:58:17;29.02;;;15.30;;
9461;SDS011;4769;42.660;23.262;2023-02-28T13:00:58;28.63;;;16.08;;
9461;SDS011;4769;42.660;23.262;2023-02-28T13:03:44;23.58;;;15.40;;
9461;SDS011;4769;42.660;23.262;2023-02-28T13:09:26;26.55;;;15.07;;
9461;SDS011;4769;42.660;23.262;2023-02-28T13:11:53;27.50;;;14.73;;
9461;SDS011;4769;42.660;23.262;2023-02-28T13:14:22;24.58;;;15.10;;
9461;SDS011;4769;42.660;23.262;2023-02-28T13:16:58;29.55;;;16.02;;
9461;SDS011;4769;42.660;23.262;2023-02-28T13:19:27;24.10;;;15.27;;
9461;SDS011;4769;42.660;23.262;2023-02-28T13:21:55;28.40;;;15.43;;
9461;SDS011;4769;42.660;23.262;2023-02-28T13:29:57;26.42;;;14.57;;
9461;SDS011;4769;42.660;23.262;2023-02-28T13:38:16;26.55;;;14.13;;
9461;SDS011;4769;42.660;23.262;2023-02-28T13:40:50;26.17;;;14.95;;
9461;SDS011;4769;42.660;23.262;2023-02-28T13:43:16;30.23;;;14.93;;
9461;SDS011;4769;42.660;23.262;2023-02-28T13:48:38;32.03;;;13.10;;
9461;SDS011;4769;42.660;23.262;2023-02-28T13:54:13;21.02;;;11.93;;
9461;SDS011;4769;42.660;23.262;2023-02-28T13:56:50;24.10;;;12.55;;
9461;SDS011;4769;42.660;23.262;2023-02-28T13:59:23;24.65;;;12.23;;
9461;SDS011;4769;42.660;23.262;2023-02-28T14:02:01;22.25;;;12.25;;
9461;SDS011;4769;42.660;23.262;2023-02-28T14:04:45;29.80;;;12.20;;
9461;SDS011;4769;42.660;23.262;2023-02-28T14:07:19;21.55;;;12.82;;
9461;SDS011;4769;42.660;23.262;2023-02-28T14:09:49;25.98;;;12.93;;
9461;SDS011;4769;42.660;23.262;2023-02-28T14:18:11;22.55;;;13.07;;
9461;SDS011;4769;42.660;23.262;2023-02-28T14:20:42;21.77;;;11.85;;
9461;SDS011;4769;42.660;23.262;2023-02-28T14:23:12;32.03;;;13.98;;
9461;SDS011;4769;42.660;23.262;2023-02-28T14:25:51;26.92;;;13.55;;
9461;SDS011;4769;42.660;23.262;2023-02-28T14:28:27;26.23;;;11.93;;
9461;SDS011;4769;42.660;23.262;2023-02-28T14:31:07;20.90;;;11.55;;
9461;SDS011;4769;42.660;23.262;2023-02-28T14:33:42;27.85;;;12.48;;
9461;SDS011;4769;42.660;23.262;2023-02-28T14:36:23;18.23;;;11.93;;
9461;SDS011;4769;42.660;23.262;2023-02-28T14:38:53;22.80;;;12.10;;
9461;SDS011;4769;42.660;23.262;2023-02-28T14:41:22;23.15;;;11.18;;
9461;SDS011;4769;42.660;23.262;2023-02-28T14:43:53;23.75;;;11.60;;
9461;SDS011;4769;42.660;23.262;2023-02-28T14:46:21;27.83;;;12.85;;
9461;SDS011;4769;42.660;23.262;2023-02-28T14:48:50;22.38;;;12.27;;
9461;SDS011;4769;42.660;23.262;2023-02-28T14:51:19;24.50;;;13.30;;
9461;SDS011;4769;42.660;23.262;2023-02-28T14:53:48;19.90;;;12.75;;
9461;SDS011;4769;42.660;23.262;2023-02-28T14:56:23;22.45;;;11.43;;
9461;SDS011;4769;42.660;23.262;2023-02-28T15:05:10;19.58;;;10.98;;
9461;SDS011;4769;42.660;23.262;2023-02-28T15:08:00;20.40;;;11.87;;
9461;SDS011;4769;42.660;23.262;2023-02-28T15:10:28;26.40;;;12.53;;
9461;SDS011;4769;42.660;23.262;2023-02-28T15:12:55;21.70;;;12.50;;
9461;SDS011;4769;42.660;23.262;2023-02-28T15:15:23;26.08;;;13.27;;
9461;SDS011;4769;42.660;23.262;2023-02-28T15:17:52;24.63;;;12.00;;
9461;SDS011;4769;42.660;23.262;2023-02-28T15:20:24;23.40;;;12.53;;
9461;SDS011;4769;42.660;23.262;2023-02-28T15:22:51;27.00;;;13.27;;
9461;SDS011;4769;42.660;23.262;2023-02-28T15:25:21;22.43;;;11.97;;
9461;SDS011;4769;42.660;23.262;2023-02-28T15:27:48;28.33;;;11.97;;
9461;SDS011;4769;42.660;23.262;2023-02-28T15:30:17;24.08;;;11.82;;
9461;SDS011;4769;42.660;23.262;2023-02-28T15:32:44;27.17;;;12.73;;
9461;SDS011;4769;42.660;23.262;2023-02-28T15:35:29;25.27;;;13.50;;
9461;SDS011;4769;42.660;23.262;2023-02-28T15:37:57;28.00;;;14.90;;
9461;SDS011;4769;42.660;23.262;2023-02-28T15:40:27;24.38;;;14.40;;
9461;SDS011;4769;42.660;23.262;2023-02-28T15:45:41;23.20;;;12.97;;
9461;SDS011;4769;42.660;23.262;2023-02-28T15:48:15;23.57;;;12.13;;
9461;SDS011;4769;42.660;23.262;2023-02-28T15:50:46;25.08;;;11.65;;
9461;SDS011;4769;42.660;23.262;2023-02-28T15:53:15;19.90;;;12.40;;
9461;SDS011;4769;42.660;23.262;2023-02-28T15:55:42;21.87;;;12.07;;